Time;durP1;ratioP1;P1;durP2;ratioP2;P2;SDS_P1;SDS_P2;PMS_P1;PMS_P2;Temp;Humidity;BMP_temperature;BMP_pressure;BME280_temperature;BME280_humidity;BME280_pressure;Samples;Min_cycle;Max_cycle;Signal;HPM_P1;HPM_P2
2023/01/24 00:02:04;;;;;;;33.13;15.38;;;5.80;99.90;;;;;;4992212;28;20109;-81
2023/01/24 00:04:30;;;;;;;36.17;16.00;;;5.80;99.90;;;;;;4992408;28;20125;-79
2023/01/24 00:06:55;;;;;;;30.25;14.07;;;5.80;99.90;;;;;;4992483;28;20420;-79
2023/01/24 00:09:21;;;;;;;27.63;13.90;;;5.80;99.90;;;;;;4993798;28;20401;-81
2023/01/24 00:11:46;;;;;;;31.92;14.98;;;5.80;99.90;;;;;;4992793;28;20026;-79
2023/01/24 00:14:12;;;;;;;27.23;13.82;;;5.80;99.90;;;;;;4992924;28;20404;-79
2023/01/24 00:16:38;;;;;;;32.35;14.57;;;5.80;99.90;;;;;;4993631;28;20038;-80
2023/01/24 00:19:03;;;;;;;31.55;15.10;;;5.90;99.90;;;;;;4994795;28;20420;-80
2023/01/24 00:21:29;;;;;;;30.40;13.75;;;5.70;99.90;;;;;;4994043;28;20033;-80
2023/01/24 00:23:55;;;;;;;28.10;13.05;;;5.80;99.90;;;;;;4996672;28;20473;-80
2023/01/24 00:26:23;;;;;;;30.05;14.55;;;5.80;99.90;;;;;;4995677;28;20508;-79
2023/01/24 00:28:49;;;;;;;29.17;13.93;;;5.80;99.90;;;;;;4996141;28;20046;-79
2023/01/24 00:31:15;;;;;;;27.58;13.68;;;5.80;99.90;;;;;;4995626;28;20058;-79
2023/01/24 00:33:41;;;;;;;27.83;13.93;;;5.90;99.90;;;;;;4995941;28;20030;-80
2023/01/24 00:36:07;;;;;;;27.55;12.73;;;5.80;99.90;;;;;;4995980;28;20108;-80
2023/01/24 00:38:33;;;;;;;27.27;13.45;;;5.80;99.90;;;;;;4994391;28;20516;-81
2023/01/24 00:40:59;;;;;;;25.25;12.90;;;5.80;99.90;;;;;;4994244;28;20453;-80
2023/01/24 00:43:26;;;;;;;30.10;14.13;;;5.80;99.90;;;;;;4995376;28;20061;-80
2023/01/24 00:45:52;;;;;;;24.58;12.10;;;5.90;99.90;;;;;;4995477;28;20030;-80
2023/01/24 00:48:17;;;;;;;28.05;13.63;;;5.80;99.90;;;;;;4994550;28;20022;-81
2023/01/24 00:50:43;;;;;;;29.23;14.30;;;5.80;99.90;;;;;;4995747;28;20483;-79
2023/01/24 00:53:09;;;;;;;29.52;13.95;;;5.80;99.90;;;;;;4994951;28;20089;-79
2023/01/24 00:55:42;;;;;;;25.45;12.95;;;5.80;99.90;;;;;;4996280;28;20380;-79
2023/01/24 00:58:07;;;;;;;25.40;12.75;;;6.00;99.90;;;;;;4995818;28;20515;-80
2023/01/24 01:00:34;;;;;;;28.52;13.50;;;5.80;99.90;;;;;;4993724;28;20077;-79
2023/01/24 01:03:00;;;;;;;25.75;12.18;;;5.80;99.90;;;;;;4995231;28;20061;-79
2023/01/24 01:05:25;;;;;;;29.10;13.13;;;5.80;99.90;;;;;;4994641;28;20077;-78
2023/01/24 01:07:51;;;;;;;24.30;11.82;;;5.80;99.90;;;;;;4994627;28;20408;-80
2023/01/24 01:10:17;;;;;;;26.35;12.85;;;5.80;99.90;;;;;;4994577;28;20030;-79
2023/01/24 01:12:43;;;;;;;28.20;12.65;;;5.90;99.90;;;;;;4994570;28;20038;-79
2023/01/24 01:15:09;;;;;;;25.48;12.50;;;5.70;99.90;;;;;;4994749;28;20169;-79
2023/01/24 01:17:35;;;;;;;21.13;10.80;;;5.70;99.90;;;;;;4994794;28;20106;-78
2023/01/24 01:20:00;;;;;;;23.42;11.63;;;5.80;99.90;;;;;;4993413;28;20466;-78
2023/01/24 01:22:26;;;;;;;20.92;11.50;;;5.70;99.90;;;;;;4993446;28;20092;-78
2023/01/24 01:24:52;;;;;;;23.27;11.88;;;5.70;99.90;;;;;;4993364;28;20360;-79
2023/01/24 01:27:17;;;;;;;25.35;11.90;;;5.70;99.90;;;;;;4994364;28;20148;-77
2023/01/24 01:29:43;;;;;;;24.45;12.30;;;5.70;99.90;;;;;;4994729;28;20034;-79
2023/01/24 01:32:09;;;;;;;22.92;11.35;;;5.70;99.90;;;;;;4993485;28;20421;-78
2023/01/24 01:34:34;;;;;;;26.20;11.40;;;5.70;99.90;;;;;;4993962;28;20034;-79
2023/01/24 01:37:00;;;;;;;22.60;11.38;;;5.70;99.90;;;;;;4994251;28;20031;-79
2023/01/24 01:39:25;;;;;;;22.38;11.90;;;5.70;99.90;;;;;;4994047;28;20026;-78
2023/01/24 01:41:51;;;;;;;23.05;11.07;;;5.70;99.90;;;;;;4994543;28;20018;-80
2023/01/24 01:47:34;;;;;;;25.02;11.18;;;5.70;99.90;;;;;;4994073;28;20134;-79
2023/01/24 01:50:17;;;;;;;20.95;10.60;;;5.70;99.90;;;;;;4994079;28;20088;-79
2023/01/24 01:52:44;;;;;;;24.15;11.55;;;5.70;99.90;;;;;;4993986;28;20046;-79
2023/01/24 01:55:17;;;;;;;22.73;10.80;;;5.70;99.90;;;;;;4992296;28;20046;-79
2023/01/24 01:57:43;;;;;;;23.23;10.45;;;5.70;99.90;;;;;;4992808;28;20141;-78
2023/01/24 02:00:19;;;;;;;21.27;10.55;;;5.70;99.90;;;;;;4993973;28;20109;-80
2023/01/24 02:02:50;;;;;;;16.30;8.73;;;5.80;99.90;;;;;;4993103;28;20327;-79
2023/01/24 02:05:22;;;;;;;20.20;10.23;;;5.80;99.90;;;;;;4992402;28;20036;-79
2023/01/24 02:07:59;;;;;;;18.42;9.10;;;5.80;99.90;;;;;;4992542;28;20056;-78
2023/01/24 02:11:37;;;;;;;19.75;9.70;;;5.80;99.90;;;;;;4992560;28;20026;-79
2023/01/24 02:13:12;;;;;;;18.25;9.05;;;5.70;99.90;;;;;;4993725;28;20030;-78
2023/01/24 02:18:22;;;;;;;19.98;9.27;;;5.80;99.90;;;;;;4993753;28;20061;-77
2023/01/24 02:20:48;;;;;;;18.15;9.20;;;5.60;99.90;;;;;;4993276;28;20121;-79
2023/01/24 02:23:36;;;;;;;17.55;8.85;;;5.70;99.90;;;;;;4993685;28;20022;-79
2023/01/24 02:26:17;;;;;;;15.57;8.20;;;5.70;99.90;;;;;;4993573;28;20558;-80
2023/01/24 02:28:48;;;;;;;16.67;8.63;;;5.80;99.90;;;;;;4992091;28;20050;-79
2023/01/24 02:31:14;;;;;;;17.08;8.25;;;5.80;99.90;;;;;;4993277;28;20026;-79
2023/01/24 02:33:40;;;;;;;13.73;7.78;;;5.70;99.90;;;;;;4992016;28;20085;-79
2023/01/24 02:36:11;;;;;;;14.93;7.65;;;5.70;99.90;;;;;;5004122;28;20022;-79
2023/01/24 02:38:40;;;;;;;14.77;7.57;;;5.60;99.90;;;;;;5012774;28;20041;-79
2023/01/24 02:41:07;;;;;;;13.25;7.22;;;5.70;99.90;;;;;;5012794;28;20022;-79
2023/01/24 02:43:38;;;;;;;16.60;8.03;;;5.70;99.90;;;;;;5012670;28;20172;-79
2023/01/24 02:46:03;;;;;;;14.60;7.57;;;5.60;99.90;;;;;;5011745;28;20275;-80
2023/01/24 02:48:29;;;;;;;13.93;6.63;;;5.70;99.90;;;;;;5012817;28;20025;-80
2023/01/24 02:53:39;;;;;;;15.48;7.22;;;5.70;99.90;;;;;;5012451;28;20095;-79
2023/01/24 02:58:52;;;;;;;15.90;7.40;;;5.80;99.90;;;;;;5012638;28;20045;-79
2023/01/24 03:01:18;;;;;;;13.95;7.03;;;5.80;99.90;;;;;;5012330;28;20121;-78
2023/01/24 03:03:45;;;;;;;12.55;7.00;;;5.80;99.90;;;;;;5012438;28;20068;-78
2023/01/24 03:06:12;;;;;;;13.15;7.03;;;5.80;99.90;;;;;;5012494;28;20018;-79
2023/01/24 03:08:38;;;;;;;13.68;6.78;;;5.80;99.90;;;;;;5011925;28;20183;-79
2023/01/24 03:11:05;;;;;;;11.85;6.50;;;5.80;99.90;;;;;;5011016;28;20467;-78
2023/01/24 03:35:27;;;;;;;11.07;6.05;;;5.70;99.90;;;;;;5011612;28;20125;-78
2023/01/24 03:40:38;;;;;;;12.27;5.45;;;5.80;99.90;;;;;;5011258;28;20096;-79
2023/01/24 03:43:04;;;;;;;11.82;5.50;;;5.90;99.80;;;;;;5011529;28;20026;-78
2023/01/24 03:45:33;;;;;;;10.10;5.63;;;5.80;99.60;;;;;;5010185;28;20471;-78
2023/01/24 03:48:01;;;;;;;11.05;5.75;;;5.90;99.80;;;;;;5011794;28;20247;-77
2023/01/24 03:53:22;;;;;;;9.02;4.97;;;5.70;99.80;;;;;;5011743;28;20040;-78
2023/01/24 03:55:55;;;;;;;10.43;5.53;;;5.80;99.70;;;;;;5011483;28;20030;-79
2023/01/24 03:58:22;;;;;;;10.30;5.03;;;5.80;99.60;;;;;;5010190;28;20039;-78
2023/01/24 04:00:47;;;;;;;11.25;4.93;;;5.80;99.50;;;;;;5011484;28;20380;-78
2023/01/24 04:03:13;;;;;;;8.38;4.97;;;5.80;99.60;;;;;;5011790;28;20373;-77
2023/01/24 04:05:39;;;;;;;9.57;5.05;;;5.70;99.60;;;;;;5010509;28;20041;-78
2023/01/24 04:08:05;;;;;;;11.65;5.05;;;5.70;99.70;;;;;;5010177;28;20040;-77
2023/01/24 04:10:31;;;;;;;7.13;4.53;;;5.80;99.60;;;;;;5011271;28;20056;-78
2023/01/24 04:12:57;;;;;;;10.25;5.25;;;5.70;99.50;;;;;;5011831;28;20093;-79
2023/01/24 04:15:26;;;;;;;7.65;4.38;;;5.70;99.60;;;;;;5012423;28;20109;-78
2023/01/24 04:17:56;;;;;;;9.73;5.05;;;5.80;99.60;;;;;;5012506;28;20097;-77
2023/01/24 04:20:22;;;;;;;9.07;5.30;;;5.90;99.30;;;;;;5013218;28;20125;-76
2023/01/24 04:22:48;;;;;;;8.40;4.82;;;5.80;99.30;;;;;;5017540;28;20030;-79
2023/01/24 04:25:13;;;;;;;9.60;4.60;;;5.80;99.30;;;;;;5012877;28;20435;-78
2023/01/24 04:27:39;;;;;;;8.43;4.53;;;5.90;99.30;;;;;;5012649;28;20053;-79
2023/01/24 04:30:09;;;;;;;9.60;5.13;;;5.80;99.10;;;;;;5013564;28;20401;-78
2023/01/24 04:32:36;;;;;;;8.55;4.68;;;5.80;99.20;;;;;;5011919;28;20054;-79
2023/01/24 04:35:03;;;;;;;9.73;5.25;;;5.70;99.20;;;;;;5011805;28;20487;-79
2023/01/24 04:37:29;;;;;;;9.25;4.70;;;5.70;99.30;;;;;;5013239;28;20058;-78
2023/01/24 04:39:55;;;;;;;10.80;4.88;;;5.80;99.10;;;;;;5013023;28;20029;-78
2023/01/24 04:42:21;;;;;;;8.00;4.47;;;5.70;99.10;;;;;;5012888;28;20515;-78
2023/01/24 04:44:46;;;;;;;8.02;4.55;;;5.70;99.30;;;;;;5013599;28;20381;-79
2023/01/24 04:47:12;;;;;;;9.18;4.40;;;5.70;99.30;;;;;;5011748;28;20143;-79
2023/01/24 04:49:38;;;;;;;7.45;4.13;;;5.70;99.30;;;;;;5012416;28;20026;-78
2023/01/24 04:52:04;;;;;;;11.55;4.80;;;5.70;98.90;;;;;;5011179;28;20542;-77
2023/01/24 04:54:29;;;;;;;7.45;4.18;;;5.70;99.00;;;;;;5010042;28;20303;-76
2023/01/24 04:56:55;;;;;;;10.07;5.07;;;5.70;99.00;;;;;;5011273;28;20081;-78
2023/01/24 04:59:21;;;;;;;7.18;4.50;;;5.70;99.00;;;;;;5010952;28;20030;-77
2023/01/24 05:01:46;;;;;;;9.02;4.55;;;5.70;99.00;;;;;;5010960;28;20038;-77
2023/01/24 05:04:12;;;;;;;8.15;4.65;;;5.60;98.90;;;;;;5010036;28;20040;-78
2023/01/24 05:06:38;;;;;;;6.63;4.15;;;5.80;99.00;;;;;;5010403;28;20129;-77
2023/01/24 05:09:04;;;;;;;7.07;4.20;;;5.70;99.00;;;;;;5012429;28;20036;-78
2023/01/24 05:11:30;;;;;;;9.63;5.18;;;5.70;98.80;;;;;;5013113;28;20042;-76
2023/01/24 05:13:55;;;;;;;8.98;5.13;;;5.70;98.80;;;;;;5012801;28;20088;-77
2023/01/24 05:16:21;;;;;;;10.38;5.03;;;5.70;98.90;;;;;;5014055;28;20088;-78
2023/01/24 05:18:47;;;;;;;10.38;4.75;;;5.60;98.90;;;;;;5013986;28;20077;-78
2023/01/24 05:21:15;;;;;;;10.18;5.22;;;5.60;98.90;;;;;;5014317;28;20026;-78
2023/01/24 05:23:42;;;;;;;;;;;5.70;98.90;;;;;;5013250;28;20376;-78
2023/01/24 05:26:07;;;;;;;11.40;4.72;;;5.70;98.80;;;;;;5013825;28;20040;-78
2023/01/24 05:28:34;;;;;;;10.43;5.30;;;5.70;98.90;;;;;;5014400;28;20113;-78
2023/01/24 05:31:01;;;;;;;10.07;5.32;;;5.70;98.90;;;;;;5014119;28;20503;-78
2023/01/24 05:33:27;;;;;;;11.33;4.83;;;5.70;98.90;;;;;;5013949;28;20030;-79
2023/01/24 05:36:07;;;;;;;10.27;5.07;;;5.70;98.70;;;;;;5014324;28;20032;-79
2023/01/24 05:38:33;;;;;;;8.98;5.07;;;5.70;98.70;;;;;;5013802;28;20040;-78
2023/01/24 05:41:00;;;;;;;10.65;5.03;;;5.70;98.70;;;;;;5012791;28;20034;-78
2023/01/24 05:43:26;;;;;;;9.30;5.22;;;5.90;98.90;;;;;;5012492;28;20046;-77
2023/01/24 05:45:59;;;;;;;8.23;4.43;;;5.70;98.60;;;;;;5013735;28;20029;-76
2023/01/24 05:48:25;;;;;;;9.38;4.85;;;5.70;98.60;;;;;;5013675;28;20022;-77
2023/01/24 05:50:57;;;;;;;8.15;4.43;;;5.70;98.60;;;;;;5013953;28;20041;-78
2023/01/24 05:53:22;;;;;;;7.75;4.50;;;5.70;98.70;;;;;;5013375;28;20076;-79
2023/01/24 05:55:54;;;;;;;10.07;4.82;;;5.60;98.60;;;;;;5012228;28;20412;-79
2023/01/24 05:58:20;;;;;;;10.60;5.05;;;5.70;98.80;;;;;;5013323;28;20045;-79
2023/01/24 06:00:45;;;;;;;9.23;5.38;;;5.60;98.90;;;;;;5013237;28;20117;-78
2023/01/24 06:03:11;;;;;;;6.10;3.78;;;5.50;98.90;;;;;;5012706;28;20040;-78
2023/01/24 06:05:36;;;;;;;12.05;4.57;;;5.60;98.90;;;;;;5013448;28;20045;-79
2023/01/24 06:08:02;;;;;;;8.55;4.53;;;5.60;98.90;;;;;;5012970;28;20460;-77
2023/01/24 06:10:28;;;;;;;7.18;4.28;;;5.60;98.80;;;;;;5011869;28;20057;-79
2023/01/24 06:12:53;;;;;;;8.00;4.20;;;5.60;98.90;;;;;;5011813;28;20038;-78
2023/01/24 06:15:19;;;;;;;9.45;5.00;;;5.60;98.90;;;;;;5012096;28;20352;-79
2023/01/24 06:17:45;;;;;;;10.27;4.97;;;5.60;98.80;;;;;;5012553;28;20097;-79
2023/01/24 06:20:12;;;;;;;8.05;4.38;;;5.50;98.80;;;;;;5015146;28;20030;-80
2023/01/24 06:22:50;;;;;;;8.43;4.43;;;5.60;98.80;;;;;;5014285;28;20057;-77
2023/01/24 06:25:23;;;;;;;8.45;4.30;;;5.60;98.60;;;;;;5012914;28;20255;-78
2023/01/24 06:27:49;;;;;;;9.35;4.78;;;5.60;98.70;;;;;;5011884;28;20365;-78
2023/01/24 06:30:17;;;;;;;9.80;4.38;;;5.50;98.70;;;;;;5013453;28;20349;-78
2023/01/24 06:33:10;;;;;;;7.82;4.90;;;5.50;98.80;;;;;;5013541;28;20050;-85
2023/01/24 06:35:39;;;;;;;7.95;4.20;;;5.50;98.80;;;;;;5011798;28;20160;-80
2023/01/24 06:38:14;;;;;;;7.45;4.72;;;5.50;98.60;;;;;;5012937;28;20040;-80
2023/01/24 06:40:39;;;;;;;7.45;4.53;;;5.60;98.60;;;;;;5011923;28;20050;-80
2023/01/24 06:43:05;;;;;;;9.63;5.20;;;5.60;98.40;;;;;;5011589;28;20110;-80
2023/01/24 06:45:32;;;;;;;7.63;4.55;;;5.60;98.50;;;;;;5009694;28;20038;-80
2023/01/24 06:47:58;;;;;;;7.93;4.97;;;5.60;98.70;;;;;;4992469;28;20034;-79
2023/01/24 06:50:29;;;;;;;6.53;4.03;;;5.60;98.60;;;;;;4991803;28;20093;-80
2023/01/24 06:52:55;;;;;;;8.40;4.28;;;5.60;98.50;;;;;;4992993;28;20037;-79
2023/01/24 06:55:20;;;;;;;7.50;4.05;;;5.50;98.50;;;;;;4991945;28;20334;-81
2023/01/24 06:57:47;;;;;;;7.95;4.40;;;5.50;98.60;;;;;;4993382;28;20026;-80
2023/01/24 07:00:13;;;;;;;12.52;4.55;;;5.60;98.50;;;;;;4991918;28;20448;-81
2023/01/24 07:02:39;;;;;;;9.15;4.63;;;5.50;98.60;;;;;;4992088;28;20058;-80
2023/01/24 07:05:05;;;;;;;12.13;4.70;;;5.40;98.70;;;;;;4992670;28;20035;-80
2023/01/24 07:07:31;;;;;;;9.50;3.70;;;5.40;98.70;;;;;;4992783;28;20031;-80
2023/01/24 07:09:56;;;;;;;7.43;4.38;;;5.30;98.70;;;;;;4992641;28;20031;-81
2023/01/24 07:12:22;;;;;;;13.77;3.67;;;5.40;98.80;;;;;;4991694;28;20050;-80
2023/01/24 07:14:48;;;;;;;11.95;3.38;;;5.40;98.90;;;;;;4992148;28;20401;-81
2023/01/24 07:17:14;;;;;;;7.70;3.70;;;5.40;98.70;;;;;;4992982;28;20050;-80
2023/01/24 07:19:40;;;;;;;11.85;4.35;;;5.40;98.60;;;;;;4992410;28;20064;-81
2023/01/24 07:22:11;;;;;;;8.43;4.35;;;5.50;98.60;;;;;;4992562;28;20035;-80
2023/01/24 07:24:37;;;;;;;7.07;3.75;;;5.50;98.50;;;;;;4991290;28;20122;-81
2023/01/24 07:27:02;;;;;;;7.20;4.07;;;5.50;98.20;;;;;;4991502;28;20157;-80
2023/01/24 07:29:28;;;;;;;6.07;3.60;;;5.50;98.20;;;;;;4992769;28;20049;-78
2023/01/24 07:31:54;;;;;;;4.80;2.88;;;5.40;98.20;;;;;;4991102;28;20101;-78
2023/01/24 07:34:19;;;;;;;6.10;3.60;;;5.40;98.20;;;;;;4992895;28;20057;-79
2023/01/24 07:36:46;;;;;;;4.47;2.92;;;5.40;98.10;;;;;;4991404;28;20041;-81
2023/01/24 07:39:12;;;;;;;15.43;3.45;;;5.40;98.20;;;;;;4992954;28;20018;-80
2023/01/24 07:41:42;;;;;;;7.75;3.85;;;5.40;98.10;;;;;;4992115;28;20057;-80
2023/01/24 07:44:08;;;;;;;6.15;3.40;;;5.30;98.10;;;;;;4992142;28;20451;-79
2023/01/24 07:46:34;;;;;;;9.25;3.45;;;5.20;98.10;;;;;;4992034;28;20524;-79
2023/01/24 07:49:00;;;;;;;4.07;2.70;;;5.20;98.30;;;;;;4992319;28;20364;-79
2023/01/24 07:51:27;;;;;;;7.35;3.72;;;5.20;98.20;;;;;;4992064;28;20026;-79
2023/01/24 07:53:52;;;;;;;5.78;3.33;;;5.10;98.40;;;;;;4991585;28;20276;-80
2023/01/24 07:56:18;;;;;;;4.93;3.08;;;5.30;98.60;;;;;;4991498;28;20050;-81
2023/01/24 07:58:44;;;;;;;5.05;3.30;;;5.30;98.40;;;;;;4991033;28;20035;-79
2023/01/24 08:01:16;;;;;;;5.60;3.45;;;5.30;98.30;;;;;;4991179;28;20088;-79
2023/01/24 08:03:41;;;;;;;6.05;3.63;;;5.20;98.30;;;;;;4990946;28;20117;-79
2023/01/24 08:06:07;;;;;;;5.18;3.33;;;5.30;98.50;;;;;;4992473;28;20157;-81
2023/01/24 08:08:33;;;;;;;6.40;3.70;;;5.30;98.50;;;;;;4990766;28;20030;-79
2023/01/24 08:10:58;;;;;;;7.03;3.83;;;5.30;98.40;;;;;;4990770;28;20070;-80
2023/01/24 08:13:24;;;;;;;8.68;3.15;;;5.20;98.50;;;;;;4992456;28;20045;-80
2023/01/24 08:15:50;;;;;;;6.68;3.15;;;5.30;98.40;;;;;;4991922;28;20347;-80
2023/01/24 08:18:15;;;;;;;7.97;3.55;;;5.30;98.60;;;;;;4992594;28;20026;-80
2023/01/24 08:20:41;;;;;;;6.10;3.17;;;5.30;98.30;;;;;;4992121;28;20046;-81
2023/01/24 08:23:07;;;;;;;5.22;3.38;;;5.30;98.40;;;;;;4990815;28;20033;-80
2023/01/24 08:25:33;;;;;;;8.00;3.40;;;5.30;98.30;;;;;;4991739;28;20062;-80
2023/01/24 08:27:59;;;;;;;5.53;3.20;;;5.30;98.40;;;;;;4992175;28;20038;-79
2023/01/24 08:30:25;;;;;;;7.53;3.30;;;5.30;98.40;;;;;;4990779;28;20026;-80
2023/01/24 08:33:04;;;;;;;5.68;2.95;;;5.30;98.30;;;;;;4992366;28;20019;-81
2023/01/24 08:35:31;;;;;;;4.10;3.10;;;5.30;98.20;;;;;;4992394;28;20100;-81
2023/01/24 08:37:57;;;;;;;8.70;3.25;;;5.40;98.20;;;;;;4992244;28;20487;-80
2023/01/24 08:40:23;;;;;;;4.65;3.33;;;5.30;98.00;;;;;;4992083;28;20049;-81
2023/01/24 08:42:49;;;;;;;5.15;3.00;;;5.40;98.30;;;;;;4990827;28;20026;-80
2023/01/24 08:45:15;;;;;;;5.25;3.10;;;5.30;98.30;;;;;;4995605;28;20027;-78
2023/01/24 08:47:41;;;;;;;10.77;3.67;;;5.40;98.40;;;;;;4994820;28;20038;-81
2023/01/24 08:50:07;;;;;;;9.40;3.22;;;5.30;98.40;;;;;;4995407;28;20110;-80
2023/01/24 08:52:33;;;;;;;10.32;3.33;;;5.40;98.50;;;;;;4996895;28;20404;-80
2023/01/24 08:54:59;;;;;;;4.07;3.03;;;5.20;98.00;;;;;;4995738;28;20046;-80
2023/01/24 08:57:24;;;;;;;4.60;2.88;;;5.30;98.30;;;;;;4995412;28;20065;-79
2023/01/24 08:59:50;;;;;;;10.05;3.13;;;5.30;98.20;;;;;;4996959;28;20364;-80
2023/01/24 09:02:17;;;;;;;7.07;3.42;;;5.20;98.10;;;;;;4995782;28;20357;-81
2023/01/24 09:04:43;;;;;;;6.35;3.28;;;5.10;98.30;;;;;;4995761;28;20033;-81
2023/01/24 09:07:12;;;;;;;4.43;2.90;;;5.30;98.50;;;;;;4995427;28;20027;-83
2023/01/24 09:09:40;;;;;;;5.00;3.13;;;5.40;98.30;;;;;;4995512;28;20030;-82
2023/01/24 09:12:06;;;;;;;5.55;3.63;;;5.40;98.30;;;;;;4995009;28;20033;-83
2023/01/24 09:14:32;;;;;;;5.95;3.42;;;5.50;98.20;;;;;;4994357;28;20030;-82
2023/01/24 09:16:57;;;;;;;9.35;4.00;;;5.40;98.00;;;;;;4995781;28;20045;-82
2023/01/24 09:19:26;;;;;;;8.88;3.88;;;5.30;98.40;;;;;;4995264;28;20039;-82
2023/01/24 09:21:56;;;;;;;6.25;3.30;;;5.50;98.80;;;;;;4993822;28;20026;-84
2023/01/24 09:24:23;;;;;;;6.30;3.50;;;5.40;98.20;;;;;;4994997;28;20108;-81
2023/01/24 09:26:49;;;;;;;6.75;2.90;;;5.40;98.20;;;;;;4994413;28;20042;-81
2023/01/24 09:29:15;;;;;;;4.35;3.10;;;5.40;98.10;;;;;;4992150;28;20037;-81
2023/01/24 09:31:41;;;;;;;4.55;3.22;;;5.30;98.20;;;;;;4993334;28;20364;-83
2023/01/24 09:34:07;;;;;;;5.00;3.58;;;5.70;98.30;;;;;;4994134;28;20035;-81
2023/01/24 09:36:33;;;;;;;8.23;4.68;;;5.60;98.20;;;;;;4995451;28;20037;-81
2023/01/24 09:38:59;;;;;;;7.55;4.15;;;5.30;98.10;;;;;;4994427;28;20091;-83
2023/01/24 09:41:35;;;;;;;5.82;3.28;;;5.40;98.10;;;;;;4993318;28;20424;-82
2023/01/24 09:44:14;;;;;;;5.85;3.33;;;5.40;98.20;;;;;;4993878;28;20027;-79
2023/01/24 09:46:53;;;;;;;5.47;3.22;;;5.40;98.10;;;;;;4987002;28;20104;-83
2023/01/24 09:49:35;;;;;;;6.40;3.83;;;5.50;98.10;;;;;;4993756;28;20049;-82
2023/01/24 09:52:20;;;;;;;5.43;3.75;;;5.40;98.10;;;;;;4993688;28;20034;-81
2023/01/24 09:54:51;;;;;;;5.60;3.95;;;5.40;98.00;;;;;;4993641;28;20054;-82
2023/01/24 09:57:26;;;;;;;6.97;3.60;;;5.50;98.20;;;;;;4994005;28;20464;-80
2023/01/24 10:00:01;;;;;;;7.75;3.92;;;5.50;98.20;;;;;;4993320;28;20034;-81
2023/01/24 10:02:28;;;;;;;9.75;3.97;;;5.50;98.20;;;;;;4989848;28;20476;-83
2023/01/24 10:04:54;;;;;;;9.52;4.47;;;5.50;98.00;;;;;;4993934;28;20047;-82
2023/01/24 10:07:41;;;;;;;8.02;4.18;;;5.50;98.10;;;;;;4989703;28;20026;-83
2023/01/24 10:10:40;;;;;;;7.18;4.32;;;5.60;98.20;;;;;;4992329;28;20058;-84
2023/01/24 10:13:42;;;;;;;7.40;4.20;;;5.60;98.10;;;;;;4993503;28;20027;-83
2023/01/24 10:16:45;;;;;;;8.00;4.40;;;5.60;98.10;;;;;;4987657;28;20033;-84
2023/01/24 10:19:23;;;;;;;11.13;4.95;;;5.60;98.10;;;;;;4993414;28;20030;-84
2023/01/24 10:22:13;;;;;;;11.23;6.47;;;5.60;98.00;;;;;;4993491;28;20033;-84
2023/01/24 10:24:42;;;;;;;5.88;3.92;;;5.60;98.10;;;;;;4993004;28;20061;-82
2023/01/24 10:27:27;;;;;;;8.35;3.75;;;5.60;97.80;;;;;;4994428;28;20484;-81
2023/01/24 10:30:00;;;;;;;5.43;3.97;;;5.60;97.80;;;;;;4993828;28;20423;-83
2023/01/24 10:32:32;;;;;;;13.15;4.07;;;5.70;97.60;;;;;;4994663;28;20054;-83
2023/01/24 10:35:11;;;;;;;7.20;4.15;;;5.70;97.80;;;;;;4994064;28;20584;-84
2023/01/24 10:37:41;;;;;;;7.10;3.95;;;5.70;97.70;;;;;;4993965;28;20428;-83
2023/01/24 10:40:14;;;;;;;11.38;3.65;;;5.70;97.70;;;;;;4994593;28;20041;-82
2023/01/24 10:42:40;;;;;;;8.63;4.13;;;5.70;97.40;;;;;;4993731;28;20037;-83
2023/01/24 10:45:32;;;;;;;11.80;3.95;;;5.70;97.80;;;;;;4995406;28;20038;-83
2023/01/24 10:48:16;;;;;;;6.35;3.50;;;5.80;97.50;;;;;;4986504;28;20121;-82
2023/01/24 10:50:45;;;;;;;5.72;3.60;;;5.80;97.20;;;;;;4994054;28;20113;-82
2023/01/24 10:53:26;;;;;;;6.78;3.60;;;5.90;97.40;;;;;;4994086;28;20337;-82
2023/01/24 10:56:13;;;;;;;11.80;3.97;;;5.90;97.00;;;;;;4993025;28;20038;-83
2023/01/24 10:59:00;;;;;;;10.32;3.97;;;5.90;97.00;;;;;;4994849;28;20026;-82
2023/01/24 11:01:48;;;;;;;10.27;3.97;;;5.90;96.90;;;;;;4995804;28;20053;-83
2023/01/24 11:04:30;;;;;;;8.90;4.47;;;6.00;96.90;;;;;;4995014;28;20366;-82
2023/01/24 11:06:56;;;;;;;7.55;4.07;;;5.90;96.50;;;;;;4994333;28;20449;-81
2023/01/24 11:09:29;;;;;;;14.45;4.05;;;5.90;97.00;;;;;;4993168;28;20046;-85
2023/01/24 11:11:58;;;;;;;8.20;3.95;;;5.80;96.80;;;;;;4994591;28;20023;-82
2023/01/24 11:14:31;;;;;;;6.85;4.18;;;6.00;97.00;;;;;;4991842;28;20407;-82
2023/01/24 11:16:59;;;;;;;9.55;4.15;;;6.00;96.80;;;;;;4992977;28;20110;-83
2023/01/24 11:19:26;;;;;;;6.80;3.58;;;6.00;96.70;;;;;;4993533;28;20126;-84
2023/01/24 11:22:01;;;;;;;6.95;3.33;;;6.10;96.70;;;;;;4994680;28;20077;-83
2023/01/24 11:24:28;;;;;;;7.38;3.33;;;6.00;96.80;;;;;;4985132;28;20274;-83
2023/01/24 11:27:14;;;;;;;10.63;5.03;;;6.10;96.50;;;;;;5008767;28;20038;-83
2023/01/24 11:29:40;;;;;;;11.30;4.70;;;6.10;96.60;;;;;;4994933;28;20045;-84
2023/01/24 11:32:19;;;;;;;6.28;3.88;;;6.10;96.70;;;;;;4994183;28;20038;-83
2023/01/24 11:35:03;;;;;;;6.43;4.20;;;6.20;96.60;;;;;;4983769;28;20062;-83
2023/01/24 11:37:41;;;;;;;6.20;4.13;;;6.20;96.60;;;;;;4991330;28;20045;-84
2023/01/24 11:40:15;;;;;;;9.77;4.18;;;6.10;96.50;;;;;;4992413;28;20030;-83
2023/01/24 11:43:21;;;;;;;8.07;3.90;;;6.00;96.70;;;;;;4993518;28;20185;-84
2023/01/24 11:46:11;;;;;;;8.98;3.85;;;6.10;96.60;;;;;;4991227;28;20100;-86
2023/01/24 11:48:47;;;;;;;5.32;3.92;;;6.20;96.50;;;;;;4991333;28;20022;-85
2023/01/24 11:51:31;;;;;;;5.78;3.35;;;6.20;96.40;;;;;;4993499;28;20104;-84
2023/01/24 11:54:23;;;;;;;9.85;4.65;;;6.20;96.40;;;;;;4992507;28;20122;-84
2023/01/24 11:56:59;;;;;;;7.53;3.85;;;6.10;96.20;;;;;;4992229;28;20321;-79
2023/01/24 11:59:27;;;;;;;6.78;3.17;;;6.10;96.30;;;;;;4991046;28;20065;-80
2023/01/24 12:02:12;;;;;;;5.15;2.53;;;6.20;96.10;;;;;;4992393;28;20096;-83
2023/01/24 12:05:12;;;;;;;5.57;2.75;;;6.20;95.90;;;;;;4991329;28;20372;-84
2023/01/24 12:07:57;;;;;;;5.82;3.28;;;6.20;95.80;;;;;;4992622;28;20034;-85
2023/01/24 12:10:48;;;;;;;13.27;3.60;;;6.10;95.90;;;;;;4991998;28;20026;-84
2023/01/24 12:13:35;;;;;;;3.40;2.60;;;6.10;95.90;;;;;;4993259;28;20034;-84
2023/01/24 12:16:20;;;;;;;5.10;2.45;;;5.90;95.50;;;;;;4992449;28;20511;-86
2023/01/24 12:19:12;;;;;;;8.73;2.75;;;5.90;96.00;;;;;;4992858;28;20027;-87
2023/01/24 12:21:38;;;;;;;5.63;3.10;;;6.00;95.80;;;;;;4994242;28;20102;-86
2023/01/24 12:24:22;;;;;;;4.03;2.72;;;6.00;95.90;;;;;;4992917;28;20102;-81
2023/01/24 12:26:57;;;;;;;7.05;3.58;;;6.00;96.10;;;;;;4992715;28;20057;-83
2023/01/24 12:29:35;;;;;;;4.97;2.67;;;5.90;95.80;;;;;;4992699;28;20038;-82
2023/01/24 12:32:27;;;;;;;4.53;2.80;;;5.80;95.70;;;;;;4994083;28;20070;-84
2023/01/24 12:35:28;;;;;;;5.80;2.67;;;5.60;96.00;;;;;;4992345;28;20114;-84
2023/01/24 12:38:22;;;;;;;3.38;2.70;;;5.80;96.20;;;;;;4982247;28;20038;-81
2023/01/24 12:41:02;;;;;;;9.02;3.28;;;5.80;96.00;;;;;;4992870;28;20036;-84
2023/01/24 12:43:59;;;;;;;4.22;2.25;;;5.70;95.80;;;;;;4991895;28;20488;-77
2023/01/24 12:46:32;;;;;;;;;;;5.50;95.90;;;;;;4991225;28;20469;-81
2023/01/24 12:49:01;;;;;;;12.10;4.90;;;5.50;96.20;;;;;;4991605;28;19913;-78
2023/01/24 12:51:37;;;;;;;6.18;3.42;;;5.60;96.30;;;;;;4991560;28;20073;-79
2023/01/24 12:54:21;;;;;;;15.35;7.05;;;5.60;96.10;;;;;;4991916;28;20022;-81
2023/01/24 12:57:11;;;;;;;13.07;7.47;;;5.60;96.30;;;;;;4991006;28;20042;-79
2023/01/24 12:59:37;;;;;;;6.57;2.85;;;5.70;96.30;;;;;;4991927;28;20109;-81
2023/01/24 13:02:23;;;;;;;5.35;3.08;;;5.70;96.30;;;;;;4991961;28;20524;-79
2023/01/24 13:05:18;;;;;;;8.50;2.90;;;5.60;96.30;;;;;;4990549;28;20153;-80
2023/01/24 13:08:21;;;;;;;5.88;3.55;;;5.60;96.40;;;;;;4991325;28;20448;-78
2023/01/24 13:11:22;;;;;;;4.93;3.28;;;5.50;96.40;;;;;;4990519;28;20030;-80
2023/01/24 13:14:05;;;;;;;6.97;3.53;;;5.60;96.70;;;;;;4991622;28;20072;-76
2023/01/24 13:17:09;;;;;;;8.23;3.40;;;5.80;96.60;;;;;;4990452;28;20317;-79
2023/01/24 13:19:54;;;;;;;7.90;3.63;;;5.80;96.30;;;;;;4991401;28;20030;-79
2023/01/24 13:22:41;;;;;;;6.70;3.22;;;5.90;96.40;;;;;;4990698;28;20035;-80
2023/01/24 13:25:33;;;;;;;5.75;3.25;;;5.80;96.20;;;;;;4990769;28;20026;-80
2023/01/24 13:28:05;;;;;;;9.23;3.50;;;5.80;96.30;;;;;;4991320;28;20041;-80
2023/01/24 13:30:49;;;;;;;10.10;3.35;;;5.80;96.50;;;;;;4993477;28;20088;-79
2023/01/24 13:33:22;;;;;;;10.90;4.10;;;5.90;96.30;;;;;;4995044;28;20097;-79
2023/01/24 13:35:51;;;;;;;7.15;3.50;;;5.90;96.40;;;;;;4995537;28;20390;-80
2023/01/24 13:38:29;;;;;;;5.70;3.58;;;5.80;96.50;;;;;;4996024;28;20045;-79
2023/01/24 13:41:05;;;;;;;7.60;3.42;;;5.90;96.60;;;;;;4994541;28;20121;-79
2023/01/24 13:43:46;;;;;;;7.60;3.50;;;5.90;96.40;;;;;;4994166;28;20030;-79
2023/01/24 13:46:13;;;;;;;13.13;4.50;;;5.90;96.40;;;;;;4994901;28;20433;-81
2023/01/24 13:48:44;;;;;;;11.02;3.60;;;5.90;96.40;;;;;;4993510;28;20034;-78
2023/01/24 13:51:21;;;;;;;7.90;4.60;;;5.80;96.50;;;;;;4993916;28;20023;-80
2023/01/24 13:54:06;;;;;;;8.68;4.18;;;5.70;96.60;;;;;;4994748;28;20058;-79